Time;durP1;ratioP1;P1;durP2;ratioP2;P2;SDS_P1;SDS_P2;PMS_P1;PMS_P2;Temp;Humidity;BMP_temperature;BMP_pressure;BME280_temperature;BME280_humidity;BME280_pressure;Samples;Min_cycle;Max_cycle;Signal;HPM_P1;HPM_P2
2024/03/09 00:00:42;;;;;;;36.30;17.05;;;;;;;5.17;89.23;99406.66;5021115;28;20716;-61
2024/03/09 00:03:12;;;;;;;39.53;19.13;;;;;;;5.17;89.16;99401.16;5031857;28;20061;-61
2024/03/09 00:05:40;;;;;;;34.05;16.25;;;;;;;5.19;89.18;99404.34;5030580;28;20056;-61
2024/03/09 00:08:09;;;;;;;35.30;16.63;;;;;;;5.17;88.88;99395.69;5025862;28;20069;-61
2024/03/09 00:10:39;;;;;;;40.80;19.50;;;;;;;5.15;89.16;99408.94;5041388;28;20124;-61
2024/03/09 00:13:10;;;;;;;36.13;18.10;;;;;;;5.13;89.07;99405.75;5032573;28;20038;-61
2024/03/09 00:15:41;;;;;;;29.27;14.60;;;;;;;5.11;88.99;99402.53;5029800;28;20064;-60
2024/03/09 00:18:11;;;;;;;34.75;16.35;;;;;;;5.08;88.50;99386.78;5022833;28;20147;-61
2024/03/09 00:20:42;;;;;;;30.52;15.65;;;;;;;5.06;88.76;99383.56;5027994;28;20579;-61
2024/03/09 00:23:09;;;;;;;32.00;16.83;;;;;;;5.06;88.44;99382.75;5025278;28;20411;-61
2024/03/09 00:25:37;;;;;;;32.83;15.27;;;;;;;5.09;88.30;99382.88;5026919;28;20042;-61
2024/03/09 00:28:06;;;;;;;36.95;15.85;;;;;;;5.11;88.35;99366.88;5027704;28;20670;-61
2024/03/09 00:30:34;;;;;;;34.05;16.48;;;;;;;5.14;88.49;99363.44;5030252;28;20384;-61
2024/03/09 00:33:05;;;;;;;29.98;16.58;;;;;;;5.17;88.11;99367.44;5030164;28;20060;-61
2024/03/09 00:35:35;;;;;;;32.58;15.07;;;;;;;5.17;88.01;99354.53;5021866;28;20049;-60
2024/03/09 00:38:03;;;;;;;33.00;16.85;;;;;;;5.20;88.07;99359.34;5031932;28;20049;-61
2024/03/09 00:40:32;;;;;;;33.08;15.88;;;;;;;5.24;88.11;99367.69;5027396;28;20483;-61
2024/03/09 00:43:05;;;;;;;28.23;14.90;;;;;;;5.25;88.02;99353.63;5030772;28;20046;-61
2024/03/09 00:45:33;;;;;;;32.45;14.95;;;;;;;5.25;87.77;99358.28;5026967;28;20045;-61
2024/03/09 00:48:03;;;;;;;29.60;14.90;;;;;;;5.28;87.33;99365.84;5026800;28;20056;-61
2024/03/09 00:50:31;;;;;;;30.55;14.93;;;;;;;5.28;87.35;99355.69;5044432;28;20128;-61
2024/03/09 00:52:59;;;;;;;32.45;15.02;;;;;;;5.30;87.53;99355.31;5041959;28;20250;-61
2024/03/09 00:55:27;;;;;;;37.95;15.95;;;;;;;5.29;87.22;99354.53;5042938;28;20045;-61
2024/03/09 00:57:56;;;;;;;33.95;15.93;;;;;;;5.30;87.39;99353.38;5043847;28;20049;-61
2024/03/09 01:00:23;;;;;;;34.55;17.05;;;;;;;5.31;87.25;99346.75;5035764;28;20050;-61
2024/03/09 01:02:52;;;;;;;32.03;15.73;;;;;;;5.33;87.35;99357.38;5022922;28;20415;-61
2024/03/09 01:05:22;;;;;;;31.00;15.65;;;;;;;5.32;87.37;99345.59;5030435;28;20064;-60
2024/03/09 01:07:51;;;;;;;43.15;16.95;;;;;;;5.34;87.43;99345.28;5018664;28;20061;-62
2024/03/09 01:10:19;;;;;;;31.73;16.65;;;;;;;5.34;87.46;99340.59;5033613;28;20145;-61
2024/03/09 01:12:47;;;;;;;30.75;17.20;;;;;;;5.34;87.29;99329.59;5050053;28;20041;-61
2024/03/09 01:15:16;;;;;;;33.35;17.42;;;;;;;5.34;87.24;99340.59;5030434;28;20060;-61
2024/03/09 01:17:43;;;;;;;30.95;16.15;;;;;;;5.35;87.29;99325.69;5018274;28;20058;-61
2024/03/09 01:20:12;;;;;;;30.33;16.77;;;;;;;5.38;87.49;99329.69;5029596;28;20052;-62
2024/03/09 01:22:43;;;;;;;35.65;16.27;;;;;;;5.37;87.49;99322.63;5036554;28;20403;-61
2024/03/09 01:25:12;;;;;;;39.00;18.25;;;;;;;5.37;87.35;99322.63;5049380;28;20406;-61
2024/03/09 01:27:40;;;;;;;34.53;17.70;;;;;;;5.37;87.70;99312.47;5049822;28;20052;-61
2024/03/09 01:30:09;;;;;;;35.17;17.00;;;;;;;5.37;87.60;99306.97;5048556;28;20059;-61
2024/03/09 01:32:40;;;;;;;38.28;18.88;;;;;;;5.39;87.69;99299.19;5022061;28;20053;-61
2024/03/09 01:35:08;;;;;;;27.45;14.52;;;;;;;5.38;87.41;99300.31;5025020;28;20057;-61
2024/03/09 01:37:37;;;;;;;37.63;17.45;;;;;;;5.35;87.31;99295.50;5021096;28;20042;-60
2024/03/09 01:40:06;;;;;;;34.53;17.95;;;;;;;5.34;87.64;99304.91;5027695;28;20411;-61
2024/03/09 01:42:33;;;;;;;45.22;20.13;;;;;;;5.37;87.36;99295.19;5036276;28;20063;-61
2024/03/09 01:45:04;;;;;;;36.90;18.15;;;;;;;5.35;87.48;99303.75;5042470;28;20046;-61
2024/03/09 01:47:32;;;;;;;38.60;17.35;;;;;;;5.36;87.60;99291.63;5027901;28;20676;-61
2024/03/09 01:50:00;;;;;;;36.53;17.75;;;;;;;5.34;87.52;99280.22;5029154;28;20372;-61
2024/03/09 01:52:31;;;;;;;35.95;18.10;;;;;;;5.33;87.05;99278.59;5028942;28;20053;-61
2024/03/09 01:55:06;;;;;;;35.92;17.00;;;;;;;5.33;87.47;99270.38;5033676;28;20045;-61
2024/03/09 01:57:34;;;;;;;34.65;17.20;;;;;;;5.33;87.43;99264.88;5049633;28;20104;-61
2024/03/09 02:00:02;;;;;;;36.00;17.85;;;;;;;5.33;87.33;99261.34;5015742;28;20053;-61
2024/03/09 02:02:30;;;;;;;40.15;18.52;;;;;;;5.32;87.27;99259.75;5029095;28;20411;-62
2024/03/09 02:04:58;;;;;;;34.28;17.98;;;;;;;5.31;87.26;99258.16;5034674;28;20037;-61
2024/03/09 02:07:25;;;;;;;42.35;19.40;;;;;;;5.32;87.80;99249.56;5024232;28;20052;-61
2024/03/09 02:09:53;;;;;;;41.65;18.73;;;;;;;5.33;87.58;99248.41;5020092;28;20053;-61
2024/03/09 02:12:23;;;;;;;35.90;20.08;;;;;;;5.34;87.55;99243.75;5027035;28;20079;-61
2024/03/09 02:14:50;;;;;;;50.45;22.17;;;;;;;5.34;87.78;99241.00;5022060;28;20045;-61
2024/03/09 02:17:17;;;;;;;41.30;20.05;;;;;;;5.35;87.76;99237.88;5024110;28;20056;-61
2024/03/09 02:19:45;;;;;;;48.03;20.23;;;;;;;5.36;87.62;99223.03;5018114;28;20045;-61
2024/03/09 02:22:16;;;;;;;42.00;18.52;;;;;;;5.37;87.89;99224.66;5028553;28;20072;-62
2024/03/09 02:24:55;;;;;;;45.78;22.02;;;;;;;5.37;87.75;99213.66;5023114;28;20061;-61
2024/03/09 02:27:25;;;;;;;40.70;21.08;;;;;;;5.35;87.89;99218.69;5026592;28;20049;-61
2024/03/09 02:29:53;;;;;;;45.42;21.00;;;;;;;5.35;87.93;99215.94;5028833;28;20050;-61
2024/03/09 02:32:21;;;;;;;42.67;22.33;;;;;;;5.34;88.03;99203.38;5024681;28;20050;-61
2024/03/09 02:34:49;;;;;;;52.95;22.92;;;;;;;5.30;87.60;99202.47;5021358;28;20057;-61
2024/03/09 02:37:18;;;;;;;47.03;21.25;;;;;;;5.26;87.90;99192.53;4995783;28;20046;-61
2024/03/09 02:39:47;;;;;;;48.15;23.38;;;;;;;5.23;88.00;99198.72;5018805;28;20053;-61
2024/03/09 02:42:15;;;;;;;48.33;21.55;;;;;;;5.22;88.16;99186.13;5035707;28;20044;-61
2024/03/09 02:44:42;;;;;;;46.15;22.35;;;;;;;5.21;87.88;99193.59;5022694;28;20400;-61
2024/03/09 02:47:10;;;;;;;49.20;22.90;;;;;;;5.23;88.19;99185.81;5022225;28;20061;-61
2024/03/09 02:49:38;;;;;;;48.92;21.63;;;;;;;5.25;88.21;99178.00;5024994;28;20802;-61
2024/03/09 02:52:08;;;;;;;44.45;23.13;;;;;;;5.27;88.40;99177.69;5030556;28;20479;-61
2024/03/09 02:54:36;;;;;;;48.30;21.85;;;;;;;5.30;88.35;99186.00;5025921;28;20044;-61
2024/03/09 02:57:07;;;;;;;49.05;24.20;;;;;;;5.33;88.22;99188.06;5028461;28;20494;-61
2024/03/09 02:59:35;;;;;;;48.83;24.08;;;;;;;5.35;88.20;99177.53;5017343;28;20687;-61
2024/03/09 03:02:14;;;;;;;41.03;21.00;;;;;;;5.37;88.74;99166.22;5107376;23;20061;-61
2024/03/09 03:04:41;;;;;;;50.47;25.13;;;;;;;5.40;88.40;99179.25;5047285;28;20048;-61
2024/03/09 03:07:09;;;;;;;49.75;25.40;;;;;;;5.41;88.82;99173.38;5039046;28;20394;-61
2024/03/09 03:09:36;;;;;;;55.05;25.45;;;;;;;5.42;88.99;99161.28;5045922;28;20060;-61
2024/03/09 03:12:07;;;;;;;55.60;25.15;;;;;;;5.45;89.03;99155.06;5038289;28;20049;-61
2024/03/09 03:14:39;;;;;;;54.80;25.77;;;;;;;5.47;89.14;99157.47;5032785;28;20041;-61
2024/03/09 03:17:07;;;;;;;62.92;28.33;;;;;;;5.48;89.52;99148.88;5029731;28;20046;-62
2024/03/09 03:19:35;;;;;;;62.63;27.75;;;;;;;5.47;89.87;99147.31;5033110;28;20558;-62
2024/03/09 03:22:02;;;;;;;57.20;25.27;;;;;;;5.47;90.17;99144.56;5049315;28;20045;-62
2024/03/09 03:24:31;;;;;;;50.85;24.60;;;;;;;5.48;90.29;99143.38;5028309;28;20052;-61
2024/03/09 03:27:00;;;;;;;52.60;26.17;;;;;;;5.48;90.49;99151.63;5051470;28;20045;-61
2024/03/09 03:29:27;;;;;;;56.25;24.33;;;;;;;5.47;90.73;99130.81;5051522;28;20063;-61
2024/03/09 03:32:00;;;;;;;48.05;24.50;;;;;;;5.47;91.05;99130.81;5033543;28;20048;-61
2024/03/09 03:34:27;;;;;;;51.10;25.17;;;;;;;5.48;90.65;99135.16;5050867;28;20045;-62
2024/03/09 03:36:56;;;;;;;54.20;25.73;;;;;;;5.48;90.89;99121.44;5050269;28;20111;-61
2024/03/09 03:39:27;;;;;;;47.92;23.95;;;;;;;5.47;91.12;99130.03;5050683;28;20060;-61
2024/03/09 03:41:55;;;;;;;50.08;26.15;;;;;;;5.48;91.21;99126.91;5050509;28;20524;-61
2024/03/09 03:44:23;;;;;;;56.55;25.35;;;;;;;5.47;91.45;99122.59;5050432;28;20040;-61
2024/03/09 03:46:51;;;;;;;50.78;26.50;;;;;;;5.48;91.26;99124.16;5049917;28;20060;-61
2024/03/09 03:49:19;;;;;;;53.35;28.95;;;;;;;5.47;91.61;99111.63;5027758;28;20059;-61
2024/03/09 03:51:47;;;;;;;52.30;24.73;;;;;;;5.48;91.90;99104.97;5045900;28;20056;-61
2024/03/09 03:54:15;;;;;;;56.40;26.55;;;;;;;5.47;91.95;99114.38;5032008;28;20053;-61
2024/03/09 03:56:42;;;;;;;53.88;25.05;;;;;;;5.49;92.13;99109.31;5038489;28;20049;-61
2024/03/09 03:59:10;;;;;;;77.00;31.38;;;;;;;5.51;92.21;99109.75;5046019;28;20406;-62
2024/03/09 04:01:39;;;;;;;58.28;29.73;;;;;;;5.53;92.22;99112.16;5044575;28;20050;-61
2024/03/09 04:04:06;;;;;;;60.80;28.65;;;;;;;5.53;92.52;99101.19;5014142;28;20510;-62
2024/03/09 04:06:34;;;;;;;59.00;26.08;;;;;;;5.53;92.27;99107.44;5037795;28;20056;-61
2024/03/09 04:09:01;;;;;;;52.67;25.45;;;;;;;5.53;92.51;99090.19;5043280;28;20045;-62
2024/03/09 04:11:33;;;;;;;60.47;28.98;;;;;;;5.53;92.38;99090.97;5037956;28;20060;-61
2024/03/09 04:14:01;;;;;;;57.35;26.27;;;;;;;5.53;92.52;99087.47;5040022;28;20605;-62
2024/03/09 04:16:29;;;;;;;65.25;28.33;;;;;;;5.53;92.23;99088.22;5035050;28;20056;-61
2024/03/09 04:18:56;;;;;;;56.42;27.95;;;;;;;5.56;92.60;99094.19;5031839;28;20053;-61
2024/03/09 04:21:24;;;;;;;59.28;28.30;;;;;;;5.56;92.65;99078.50;5038969;28;20045;-62
2024/03/09 04:23:51;;;;;;;54.75;26.83;;;;;;;5.57;92.69;99079.28;5045494;28;20049;-61
2024/03/09 04:26:19;;;;;;;54.47;25.92;;;;;;;5.57;92.63;99085.59;5030839;28;20053;-61
2024/03/09 04:28:46;;;;;;;56.28;27.17;;;;;;;5.59;92.62;99093.50;5041126;28;20045;-61
2024/03/09 04:31:14;;;;;;;55.55;26.38;;;;;;;5.59;92.88;99091.53;5039218;28;20056;-61
2024/03/09 04:33:41;;;;;;;59.00;28.77;;;;;;;5.60;92.84;99101.38;5049709;28;20049;-61
2024/03/09 04:36:11;;;;;;;64.32;29.55;;;;;;;5.60;92.76;99106.84;5048499;28;20049;-64
2024/03/09 04:38:38;;;;;;;61.30;26.05;;;;;;;5.60;93.24;99097.81;5041543;28;20052;-61
2024/03/09 04:41:06;;;;;;;57.83;28.40;;;;;;;5.60;93.10;99089.56;5045018;28;20053;-62
2024/03/09 04:43:37;;;;;;;68.43;31.08;;;;;;;5.62;93.15;99103.75;5046184;28;20051;-62
2024/03/09 04:46:07;;;;;;;50.53;25.92;;;;;;;5.63;93.37;99102.59;5045374;28;20510;-61
2024/03/09 04:48:34;;;;;;;68.88;30.65;;;;;;;5.64;92.95;99095.97;5036977;28;20052;-61
2024/03/09 04:51:02;;;;;;;59.63;25.95;;;;;;;5.63;93.14;99095.16;5047363;28;20410;-61
2024/03/09 04:53:29;;;;;;;62.05;29.02;;;;;;;5.65;93.14;99081.09;5050809;28;20055;-61
2024/03/09 04:55:57;;;;;;;54.03;28.20;;;;;;;5.64;93.47;99082.25;5047876;28;20045;-61
2024/03/09 04:58:28;;;;;;;62.60;26.48;;;;;;;5.63;93.21;99083.38;5060472;28;20045;-61
2024/03/09 05:00:55;;;;;;;60.17;26.10;;;;;;;5.64;93.38;99068.53;5036572;28;20069;-62
2024/03/09 05:03:23;;;;;;;69.22;31.45;;;;;;;5.63;93.52;99059.47;5045749;28;20421;-61
2024/03/09 05:05:50;;;;;;;53.92;28.95;;;;;;;5.62;93.38;99060.63;5041045;28;20045;-61
2024/03/09 05:08:17;;;;;;;55.78;27.63;;;;;;;5.63;93.29;99055.94;5048385;28;20052;-62
2024/03/09 05:10:47;;;;;;;65.38;26.20;;;;;;;5.64;93.67;99041.06;5048852;28;20505;-62
2024/03/09 05:13:14;;;;;;;57.50;28.02;;;;;;;5.63;93.48;99033.97;5041478;28;20052;-62
2024/03/09 05:15:42;;;;;;;66.07;30.05;;;;;;;5.63;93.95;99040.28;5027683;28;20038;-62
2024/03/09 05:18:11;;;;;;;62.42;31.02;;;;;;;5.64;93.78;99047.34;5045472;28;20048;-62
2024/03/09 05:20:39;;;;;;;62.30;29.85;;;;;;;5.64;93.99;99044.59;5036062;28;20041;-62
2024/03/09 05:23:07;;;;;;;64.40;31.80;;;;;;;5.65;93.75;99037.16;5047124;28;20057;-62
2024/03/09 05:25:42;;;;;;;70.53;33.13;;;;;;;5.64;94.29;99030.09;5032830;28;20041;-61
2024/03/09 05:28:12;;;;;;;58.78;26.48;;;;;;;5.64;94.38;99035.56;5030422;28;20369;-62
2024/03/09 05:30:43;;;;;;;60.47;27.27;;;;;;;5.63;94.39;99031.22;5046240;28;20053;-62
2024/03/09 05:33:11;;;;;;;65.38;31.08;;;;;;;5.64;94.28;99021.84;5048202;28;20045;-61
2024/03/09 05:35:40;;;;;;;75.10;29.85;;;;;;;5.63;94.28;99023.78;5047672;28;20044;-61
2024/03/09 05:38:08;;;;;;;53.00;27.88;;;;;;;5.64;94.68;99013.63;5047482;28;20414;-61
2024/03/09 05:40:37;;;;;;;52.83;25.20;;;;;;;5.63;94.37;99010.06;5047705;28;20502;-61
2024/03/09 05:43:11;;;;;;;68.90;29.40;;;;;;;5.62;94.84;99004.91;5047692;28;20049;-61
2024/03/09 05:45:41;;;;;;;63.50;27.63;;;;;;;5.62;94.68;99015.91;5041483;28;20048;-61
2024/03/09 05:48:08;;;;;;;59.03;27.02;;;;;;;5.62;94.83;99015.91;5046922;28;20051;-62
2024/03/09 05:50:37;;;;;;;53.08;25.88;;;;;;;5.62;94.84;99005.72;5047709;28;20815;-61
2024/03/09 05:53:06;;;;;;;69.60;30.52;;;;;;;5.63;94.99;99003.78;5047205;28;20402;-61
2024/03/09 05:55:34;;;;;;;63.83;26.45;;;;;;;5.62;94.83;99000.22;5047590;28;20410;-61
2024/03/09 05:58:02;;;;;;;55.72;28.52;;;;;;;5.63;94.86;98995.53;5047408;28;20521;-62
2024/03/09 06:00:31;;;;;;;61.45;26.98;;;;;;;5.62;95.07;99008.47;5045976;28;20053;-61
2024/03/09 06:03:06;;;;;;;49.22;25.08;;;;;;;5.62;95.25;99000.22;5046732;28;20041;-62
2024/03/09 06:05:35;;;;;;;83.35;31.60;;;;;;;5.64;94.84;99002.63;5041835;28;20049;-62
2024/03/09 06:08:03;;;;;;;66.32;30.13;;;;;;;5.65;94.99;98996.78;5039687;28;20059;-61
2024/03/09 06:10:31;;;;;;;53.13;30.08;;;;;;;5.65;95.05;98995.97;5047964;28;20045;-61
2024/03/09 06:13:02;;;;;;;62.70;27.23;;;;;;;5.64;95.11;98991.66;5033608;28;20045;-61
2024/03/09 06:15:30;;;;;;;49.75;26.15;;;;;;;5.63;95.36;98996.34;5043336;28;20462;-62
2024/03/09 06:17:58;;;;;;;59.85;27.55;;;;;;;5.63;95.45;98992.78;5046317;28;20069;-62
2024/03/09 06:20:27;;;;;;;61.05;28.33;;;;;;;5.63;95.28;99001.84;5049905;28;20044;-61
2024/03/09 06:22:57;;;;;;;60.97;26.17;;;;;;;5.63;95.43;98995.53;5044098;28;20064;-61
2024/03/09 06:25:25;;;;;;;56.65;27.80;;;;;;;5.61;95.54;98987.66;5046992;28;20045;-61
2024/03/09 06:28:03;;;;;;;59.30;29.23;;;;;;;5.62;95.41;98994.75;5044152;28;20049;-62
2024/03/09 06:30:30;;;;;;;;;;;;;;;5.61;95.69;98995.09;5026032;28;20045;-61
2024/03/09 06:33:00;;;;;;;57.83;27.65;;;;;;;5.60;95.57;98990.75;5034325;28;19936;-61
2024/03/09 06:35:31;;;;;;;49.38;25.48;;;;;;;5.59;95.70;99005.66;5045656;28;20052;-61
2024/03/09 06:38:07;;;;;;;58.70;29.73;;;;;;;5.59;95.54;98994.66;5046971;28;20533;-61
2024/03/09 06:40:41;;;;;;;57.17;27.52;;;;;;;5.58;95.69;98988.38;5046480;28;20375;-61
2024/03/09 06:43:11;;;;;;;64.85;27.88;;;;;;;5.60;95.70;98993.50;5044248;28;20056;-62
2024/03/09 06:45:40;;;;;;;56.15;25.70;;;;;;;5.60;95.67;98996.25;5042888;28;20046;-61
2024/03/09 06:48:08;;;;;;;61.25;24.85;;;;;;;5.60;95.87;98997.06;5045859;28;20071;-61
2024/03/09 06:50:43;;;;;;;59.55;26.38;;;;;;;5.60;95.93;98990.75;5043932;28;20705;-61
2024/03/09 06:53:12;;;;;;;65.32;27.33;;;;;;;5.59;96.00;98995.44;5036761;28;20052;-61
2024/03/09 06:55:40;;;;;;;55.67;28.95;;;;;;;5.60;95.67;99001.72;5060194;28;20052;-61
2024/03/09 06:58:07;;;;;;;72.32;29.27;;;;;;;5.59;95.84;99009.16;5032762;28;20520;-61
2024/03/09 07:00:34;;;;;;;68.30;31.13;;;;;;;5.59;95.72;98997.41;5034500;28;20045;-61
2024/03/09 07:03:04;;;;;;;57.67;26.35;;;;;;;5.59;95.80;98986.44;5040970;28;20044;-61
2024/03/09 07:05:35;;;;;;;58.13;27.88;;;;;;;5.59;95.97;98991.94;5050883;28;20049;-61
2024/03/09 07:08:06;;;;;;;63.00;29.35;;;;;;;5.59;95.81;98994.66;5040107;28;20040;-62
2024/03/09 07:10:35;;;;;;;57.38;28.02;;;;;;;5.61;95.99;98992.34;5041583;28;20040;-61
2024/03/09 07:13:04;;;;;;;65.55;29.52;;;;;;;5.61;95.82;98989.63;5035893;28;20080;-61
2024/03/09 07:15:32;;;;;;;61.90;25.85;;;;;;;5.60;95.72;98993.50;5043246;28;20059;-61
2024/03/09 07:18:00;;;;;;;57.72;26.42;;;;;;;5.60;95.95;99007.22;5046857;28;20045;-62
2024/03/09 07:20:28;;;;;;;68.30;29.13;;;;;;;5.61;95.86;98997.84;5050612;28;20052;-61
2024/03/09 07:22:56;;;;;;;54.30;25.25;;;;;;;5.62;96.04;98993.94;5040550;28;20053;-60
2024/03/09 07:25:27;;;;;;;55.60;25.58;;;;;;;5.61;95.82;98995.09;5038797;28;20063;-60
2024/03/09 07:27:57;;;;;;;62.00;30.02;;;;;;;5.62;95.98;99002.16;5045028;28;20052;-60
2024/03/09 07:30:24;;;;;;;55.65;27.95;;;;;;;5.63;95.99;99001.03;5039600;28;20072;-61
2024/03/09 07:32:53;;;;;;;59.08;28.27;;;;;;;5.62;95.95;99002.16;5034622;28;20098;-61
2024/03/09 07:35:27;;;;;;;49.47;22.23;;;;;;;5.61;95.89;98997.84;5044488;28;20049;-61
2024/03/09 07:37:59;;;;;;;56.10;24.55;;;;;;;5.61;95.48;99006.88;5057630;28;20248;-61
2024/03/09 07:40:36;;;;;;;;;;;;;;;5.60;95.81;99004.47;5047676;28;20056;-60
2024/03/09 07:43:05;;;;;;;56.08;27.20;;;;;;;5.59;95.62;99016.63;5039489;28;19921;-61
2024/03/09 07:45:33;;;;;;;51.08;24.42;;;;;;;5.61;95.50;98995.09;5049629;28;20042;-59
2024/03/09 07:48:01;;;;;;;57.13;26.83;;;;;;;5.61;95.31;99000.59;5045420;28;20052;-61
2024/03/09 07:50:29;;;;;;;56.45;26.70;;;;;;;5.62;95.52;98981.00;5037665;28;20801;-61
2024/03/09 07:52:57;;;;;;;53.00;25.52;;;;;;;5.63;95.26;98990.06;5049119;28;20041;-59
2024/03/09 07:55:26;;;;;;;54.53;26.10;;;;;;;5.64;95.30;98986.16;5037750;28;20532;-61
2024/03/09 07:57:56;;;;;;;50.38;23.98;;;;;;;5.66;95.00;98978.38;5041146;28;20048;-61
2024/03/09 08:00:44;;;;;;;46.80;24.08;;;;;;;5.67;95.01;98988.97;5049924;28;20053;-62
2024/03/09 08:03:13;;;;;;;77.78;30.30;;;;;;;5.68;95.17;98982.34;5034122;28;20060;-61
2024/03/09 08:05:41;;;;;;;52.83;23.77;;;;;;;5.69;95.11;98983.94;5050911;28;20530;-61
2024/03/09 08:08:11;;;;;;;52.00;25.92;;;;;;;5.71;95.43;98975.34;5044085;28;20840;-61
2024/03/09 08:10:52;;;;;;;47.95;25.80;;;;;;;5.71;95.05;98986.31;5036246;28;20052;-61
2024/03/09 08:13:23;;;;;;;61.83;27.08;;;;;;;5.73;94.93;98981.28;5040032;28;20054;-60
2024/03/09 08:15:52;;;;;;;53.78;28.10;;;;;;;5.72;95.00;98980.47;5044384;28;20052;-61
2024/03/09 08:18:21;;;;;;;63.17;30.17;;;;;;;5.73;95.15;98982.06;5036451;28;20427;-60
2024/03/09 08:20:49;;;;;;;48.28;24.25;;;;;;;5.73;94.95;98981.28;5048880;28;20045;-61
2024/03/09 08:23:17;;;;;;;53.63;26.17;;;;;;;5.74;95.16;98983.69;5046767;28;20057;-61
2024/03/09 08:25:45;;;;;;;59.25;26.92;;;;;;;5.76;94.99;98988.81;5035584;28;20507;-61
2024/03/09 08:28:12;;;;;;;55.75;26.17;;;;;;;5.75;95.14;98970.72;5036230;28;20052;-61
2024/03/09 08:30:41;;;;;;;59.20;28.88;;;;;;;5.76;94.92;98978.63;5032399;28;20030;-60
2024/03/09 08:33:09;;;;;;;57.05;26.40;;;;;;;5.76;95.16;98970.38;5047268;28;20056;-59
2024/03/09 08:35:37;;;;;;;59.78;24.50;;;;;;;5.77;95.09;98971.19;5049083;28;20060;-61
2024/03/09 08:38:06;;;;;;;51.78;28.60;;;;;;;5.79;94.96;98955.13;5045335;28;20050;-59
2024/03/09 08:40:34;;;;;;;65.90;28.02;;;;;;;5.79;95.16;98966.94;5046694;28;20467;-61
2024/03/09 08:43:06;;;;;;;54.97;27.40;;;;;;;5.80;95.07;98959.50;5044573;28;20057;-61
2024/03/09 08:45:34;;;;;;;61.70;27.90;;;;;;;5.81;95.10;98958.31;5040840;28;20060;-61
2024/03/09 08:48:03;;;;;;;61.78;28.02;;;;;;;5.81;94.95;98958.31;5058975;28;20403;-61
2024/03/09 08:50:33;;;;;;;45.50;24.08;;;;;;;5.82;94.96;98960.72;5029211;28;20049;-61
2024/03/09 08:53:01;;;;;;;62.00;26.00;;;;;;;5.84;95.06;98952.91;5059036;28;20071;-61
2024/03/09 08:55:28;;;;;;;62.80;27.58;;;;;;;5.83;94.84;98956.00;5056643;28;20053;-61
2024/03/09 08:57:56;;;;;;;48.75;22.58;;;;;;;5.84;94.73;98935.63;5055327;28;20052;-61
2024/03/09 09:00:26;;;;;;;60.70;26.25;;;;;;;5.86;94.47;98938.84;5037492;28;20056;-61
2024/03/09 09:02:56;;;;;;;58.93;23.60;;;;;;;5.86;94.53;98947.88;5055004;28;20052;-61
2024/03/09 09:05:26;;;;;;;50.65;24.55;;;;;;;5.89;94.36;98949.94;5061703;28;20055;-61
2024/03/09 09:07:55;;;;;;;47.42;24.05;;;;;;;5.91;94.34;98935.81;5047030;28;20041;-61
2024/03/09 09:10:25;;;;;;;59.85;23.98;;;;;;;5.92;94.17;98942.91;5037808;28;20060;-61
2024/03/09 09:12:54;;;;;;;52.20;25.15;;;;;;;5.94;94.11;98940.59;5035656;28;20052;-61
2024/03/09 09:15:24;;;;;;;56.10;24.85;;;;;;;5.97;94.31;98950.88;5039259;28;20068;-61
2024/03/09 09:17:55;;;;;;;62.00;28.65;;;;;;;5.99;94.49;98945.81;5048718;28;20060;-61
2024/03/09 09:20:24;;;;;;;50.97;25.08;;;;;;;5.99;94.22;98951.31;5048122;28;20052;-61
2024/03/09 09:22:53;;;;;;;56.42;28.45;;;;;;;5.99;94.33;98948.56;5059523;28;20086;-61
2024/03/09 09:25:25;;;;;;;57.55;26.80;;;;;;;6.00;94.42;98952.91;5049984;28;20044;-61
2024/03/09 09:27:59;;;;;;;48.42;23.85;;;;;;;6.01;94.28;98940.78;5068176;28;20044;-61
2024/03/09 09:30:27;;;;;;;55.63;26.25;;;;;;;6.02;94.29;98953.34;5042633;28;20056;-61
2024/03/09 09:32:56;;;;;;;52.03;25.30;;;;;;;6.03;94.23;98950.25;5054058;28;20080;-61
2024/03/09 09:35:24;;;;;;;46.92;21.23;;;;;;;6.04;94.59;98940.03;5055487;28;20391;-61
2024/03/09 09:37:57;;;;;;;55.50;24.65;;;;;;;6.04;94.33;98940.84;5048363;28;20068;-61
2024/03/09 09:40:26;;;;;;;59.83;26.80;;;;;;;6.05;94.32;98942.44;5057794;28;20060;-61
2024/03/09 09:42:53;;;;;;;49.53;22.50;;;;;;;6.08;94.48;98929.94;5054562;28;20036;-61
2024/03/09 09:45:22;;;;;;;55.33;27.25;;;;;;;6.11;93.93;98940.22;5067178;28;20514;-62
2024/03/09 09:47:50;;;;;;;57.10;24.27;;;;;;;6.14;94.18;98915.53;5051968;28;20060;-61
2024/03/09 09:50:18;;;;;;;55.22;25.08;;;;;;;6.15;93.91;98932.84;5048065;28;20049;-61
2024/03/09 09:52:48;;;;;;;51.78;24.75;;;;;;;6.18;94.06;98929.38;5056101;28;20047;-61
2024/03/09 09:55:19;;;;;;;55.53;23.83;;;;;;;6.20;93.98;98946.28;5050387;28;20049;-61
2024/03/09 09:57:47;;;;;;;55.97;25.17;;;;;;;6.20;94.11;98943.53;5062466;28;20045;-61
2024/03/09 10:00:16;;;;;;;57.30;25.80;;;;;;;6.19;93.82;98930.97;5059889;28;20048;-60
2024/03/09 10:02:43;;;;;;;53.90;25.10;;;;;;;6.21;93.82;98925.91;5062379;28;20057;-61
2024/03/09 10:05:15;;;;;;;58.15;26.00;;;;;;;6.21;93.76;98922.34;5060804;28;20068;-62
2024/03/09 10:08:08;;;;;;;56.75;25.35;;;;;;;6.21;93.94;98928.66;5044303;28;20045;-61
2024/03/09 10:10:41;;;;;;;62.03;26.60;;;;;;;6.23;94.22;98922.78;5047984;28;20407;-61
2024/03/09 10:13:13;;;;;;;57.15;23.23;;;;;;;6.24;94.03;98924.38;5047517;28;20067;-61
2024/03/09 10:15:43;;;;;;;60.97;25.77;;;;;;;6.24;94.10;98935.38;5046927;28;20064;-60
2024/03/09 10:18:12;;;;;;;53.92;26.42;;;;;;;6.25;94.15;98934.25;5059982;28;20052;-61
2024/03/09 10:20:40;;;;;;;46.47;23.63;;;;;;;6.25;93.92;98932.25;5048007;28;20578;-60
2024/03/09 10:23:12;;;;;;;50.40;23.42;;;;;;;6.27;93.79;98926.41;5047472;28;20045;-60
2024/03/09 10:25:40;;;;;;;54.03;23.95;;;;;;;6.27;94.02;98913.47;5034647;28;20033;-59
2024/03/09 10:28:10;;;;;;;54.80;25.85;;;;;;;6.30;93.93;98925.69;5060000;28;20040;-60
2024/03/09 10:30:38;;;;;;;64.63;24.52;;;;;;;6.31;93.82;98922.59;5056023;28;20045;-59
2024/03/09 10:33:10;;;;;;;52.47;24.35;;;;;;;6.29;93.83;98913.91;5065372;28;20050;-59
2024/03/09 10:35:40;;;;;;;48.30;23.33;;;;;;;6.29;93.95;98918.59;5047697;28;20052;-58
2024/03/09 10:38:09;;;;;;;55.22;24.52;;;;;;;6.28;93.95;98917.81;5047094;28;20061;-60
2024/03/09 10:40:37;;;;;;;51.90;24.95;;;;;;;6.27;93.77;98910.72;5047181;28;20410;-60
2024/03/09 10:43:11;;;;;;;47.50;24.25;;;;;;;6.27;93.91;98921.72;5057362;28;20049;-59
2024/03/09 10:45:40;;;;;;;45.80;23.25;;;;;;;6.25;93.89;98904.78;5050911;28;20055;-59
2024/03/09 10:48:09;;;;;;;47.97;24.33;;;;;;;6.25;93.77;98913.03;5053685;28;20048;-60
2024/03/09 10:50:56;;;;;;;52.75;25.83;;;;;;;6.27;93.89;98902.50;5054665;28;20053;-59
2024/03/09 10:53:46;;;;;;;51.15;26.73;;;;;;;6.27;93.55;98916.22;5043971;28;20056;-59
2024/03/09 10:56:24;;;;;;;60.05;26.95;;;;;;;6.29;93.72;98900.16;5066432;28;20055;-58
2024/03/09 10:58:53;;;;;;;44.70;23.90;;;;;;;6.30;93.80;98899.00;5066173;28;20049;-59
2024/03/09 11:01:23;;;;;;;51.40;24.30;;;;;;;6.32;93.89;98895.91;5046722;28;20067;-59
2024/03/09 11:03:51;;;;;;;55.10;24.38;;;;;;;6.32;94.19;98898.66;5062356;28;20079;-61
2024/03/09 11:06:21;;;;;;;53.33;22.63;;;;;;;6.32;94.13;98884.91;5048851;28;20045;-59
2024/03/09 11:08:53;;;;;;;43.08;20.23;;;;;;;6.32;94.11;98887.66;5044017;28;20052;-60
2024/03/09 11:11:23;;;;;;;47.10;21.38;;;;;;;6.34;94.25;98888.09;5044100;28;20048;-59
2024/03/09 11:13:51;;;;;;;53.63;26.23;;;;;;;6.33;94.26;98887.28;5045627;28;20056;-61
2024/03/09 11:16:20;;;;;;;52.92;24.58;;;;;;;6.35;94.05;98887.75;5040288;28;20059;-61
2024/03/09 11:18:51;;;;;;;55.17;24.63;;;;;;;6.35;94.17;98890.50;5039614;28;20037;-59
2024/03/09 11:21:27;;;;;;;59.40;26.55;;;;;;;6.37;94.30;98887.38;5043113;28;20045;-62
2024/03/09 11:23:59;;;;;;;48.45;23.55;;;;;;;6.34;94.38;98888.88;5037795;28;20040;-59
2024/03/09 11:26:27;;;;;;;60.75;26.95;;;;;;;6.33;94.64;98890.03;5056127;28;20414;-61
2024/03/09 11:28:55;;;;;;;61.53;25.80;;;;;;;6.32;94.59;98885.72;5034331;28;20053;-61
2024/03/09 11:31:30;;;;;;;67.05;27.27;;;;;;;6.29;94.53;98874.63;5042499;28;20048;-59
2024/03/09 11:34:13;;;;;;;54.28;26.63;;;;;;;6.26;94.80;98889.91;5042152;28;20046;-61
2024/03/09 11:36:52;;;;;;;55.80;27.05;;;;;;;6.27;94.90;98887.94;5030405;28;20053;-59